sensor_id;sensor_type;location;lat;lon;timestamp;P1;durP1;ratioP1;P2;durP2;ratioP2
79139;SDS011;68546;59.142;37.948;2023-04-24T00:01:43;5.17;;;1.30;;
79139;SDS011;68546;59.142;37.948;2023-04-24T00:04:09;3.78;;;1.35;;
79139;SDS011;68546;59.142;37.948;2023-04-24T00:06:36;5.30;;;1.60;;
79139;SDS011;68546;59.142;37.948;2023-04-24T00:09:04;5.57;;;1.67;;
79139;SDS011;68546;59.142;37.948;2023-04-24T00:11:31;4.60;;;1.58;;
79139;SDS011;68546;59.142;37.948;2023-04-24T00:13:57;6.17;;;1.50;;
79139;SDS011;68546;59.142;37.948;2023-04-24T00:16:23;4.80;;;1.60;;
79139;SDS011;68546;59.142;37.948;2023-04-24T00:18:50;6.93;;;1.70;;
79139;SDS011;68546;59.142;37.948;2023-04-24T00:21:18;6.90;;;1.65;;
79139;SDS011;68546;59.142;37.948;2023-04-24T00:23:44;6.47;;;1.85;;
79139;SDS011;68546;59.142;37.948;2023-04-24T00:26:10;4.93;;;1.63;;
79139;SDS011;68546;59.142;37.948;2023-04-24T00:28:37;4.80;;;1.80;;
79139;SDS011;68546;59.142;37.948;2023-04-24T00:31:03;5.10;;;1.77;;
79139;SDS011;68546;59.142;37.948;2023-04-24T00:33:30;5.18;;;1.20;;
79139;SDS011;68546;59.142;37.948;2023-04-24T00:35:56;5.07;;;1.70;;
79139;SDS011;68546;59.142;37.948;2023-04-24T00:38:23;5.30;;;1.67;;
79139;SDS011;68546;59.142;37.948;2023-04-24T00:40:49;4.05;;;1.30;;
79139;SDS011;68546;59.142;37.948;2023-04-24T00:43:16;11.38;;;1.50;;
79139;SDS011;68546;59.142;37.948;2023-04-24T00:45:43;4.85;;;1.58;;
79139;SDS011;68546;59.142;37.948;2023-04-24T00:48:09;4.50;;;1.60;;
79139;SDS011;68546;59.142;37.948;2023-04-24T00:50:37;6.93;;;1.80;;
79139;SDS011;68546;59.142;37.948;2023-04-24T00:53:04;4.97;;;1.73;;
79139;SDS011;68546;59.142;37.948;2023-04-24T00:55:30;5.70;;;1.85;;
79139;SDS011;68546;59.142;37.948;2023-04-24T00:57:57;5.75;;;1.80;;
79139;SDS011;68546;59.142;37.948;2023-04-24T01:00:24;4.30;;;1.98;;
79139;SDS011;68546;59.142;37.948;2023-04-24T01:02:51;7.07;;;1.50;;
79139;SDS011;68546;59.142;37.948;2023-04-24T01:05:18;5.28;;;1.70;;
79139;SDS011;68546;59.142;37.948;2023-04-24T01:07:45;4.35;;;1.95;;
79139;SDS011;68546;59.142;37.948;2023-04-24T01:10:15;5.43;;;1.80;;
79139;SDS011;68546;59.142;37.948;2023-04-24T01:12:44;4.28;;;1.88;;
79139;SDS011;68546;59.142;37.948;2023-04-24T01:15:12;6.90;;;2.17;;
79139;SDS011;68546;59.142;37.948;2023-04-24T01:17:38;4.78;;;2.00;;
79139;SDS011;68546;59.142;37.948;2023-04-24T01:20:05;7.05;;;2.88;;
79139;SDS011;68546;59.142;37.948;2023-04-24T01:22:33;11.35;;;2.55;;
79139;SDS011;68546;59.142;37.948;2023-04-24T01:25:00;5.43;;;2.20;;
79139;SDS011;68546;59.142;37.948;2023-04-24T01:27:29;9.50;;;2.20;;
79139;SDS011;68546;59.142;37.948;2023-04-24T01:29:56;9.70;;;2.10;;
79139;SDS011;68546;59.142;37.948;2023-04-24T01:32:22;7.70;;;2.42;;
79139;SDS011;68546;59.142;37.948;2023-04-24T01:34:50;7.63;;;2.50;;
79139;SDS011;68546;59.142;37.948;2023-04-24T01:37:17;6.15;;;1.90;;
79139;SDS011;68546;59.142;37.948;2023-04-24T01:39:44;6.97;;;2.00;;
79139;SDS011;68546;59.142;37.948;2023-04-24T01:42:10;6.32;;;2.40;;
79139;SDS011;68546;59.142;37.948;2023-04-24T01:44:38;7.75;;;2.53;;
79139;SDS011;68546;59.142;37.948;2023-04-24T01:47:05;7.05;;;2.10;;
79139;SDS011;68546;59.142;37.948;2023-04-24T01:49:32;4.43;;;1.42;;
79139;SDS011;68546;59.142;37.948;2023-04-24T01:51:59;6.70;;;1.53;;
79139;SDS011;68546;59.142;37.948;2023-04-24T01:54:25;5.38;;;1.73;;
79139;SDS011;68546;59.142;37.948;2023-04-24T01:56:51;4.70;;;1.55;;
79139;SDS011;68546;59.142;37.948;2023-04-24T01:59:18;4.43;;;1.38;;
79139;SDS011;68546;59.142;37.948;2023-04-24T02:01:47;4.80;;;1.42;;
79139;SDS011;68546;59.142;37.948;2023-04-24T02:04:13;5.77;;;1.57;;
79139;SDS011;68546;59.142;37.948;2023-04-24T02:06:41;4.50;;;1.30;;
79139;SDS011;68546;59.142;37.948;2023-04-24T02:09:07;4.32;;;1.23;;
79139;SDS011;68546;59.142;37.948;2023-04-24T02:11:34;7.63;;;1.58;;
79139;SDS011;68546;59.142;37.948;2023-04-24T02:14:00;4.47;;;1.30;;
79139;SDS011;68546;59.142;37.948;2023-04-24T02:16:27;7.40;;;1.90;;
79139;SDS011;68546;59.142;37.948;2023-04-24T02:18:57;12.20;;;2.88;;
79139;SDS011;68546;59.142;37.948;2023-04-24T02:21:24;7.45;;;1.75;;
79139;SDS011;68546;59.142;37.948;2023-04-24T02:23:51;7.10;;;1.40;;
79139;SDS011;68546;59.142;37.948;2023-04-24T02:26:17;4.88;;;1.70;;
79139;SDS011;68546;59.142;37.948;2023-04-24T02:28:44;4.70;;;1.63;;
79139;SDS011;68546;59.142;37.948;2023-04-24T02:31:10;12.50;;;2.58;;
79139;SDS011;68546;59.142;37.948;2023-04-24T02:33:36;11.65;;;2.20;;
79139;SDS011;68546;59.142;37.948;2023-04-24T02:36:03;7.82;;;1.73;;
79139;SDS011;68546;59.142;37.948;2023-04-24T02:38:29;8.85;;;1.85;;
79139;SDS011;68546;59.142;37.948;2023-04-24T02:40:56;5.13;;;1.70;;
79139;SDS011;68546;59.142;37.948;2023-04-24T02:43:22;16.13;;;1.60;;
79139;SDS011;68546;59.142;37.948;2023-04-24T02:45:48;12.15;;;1.75;;
79139;SDS011;68546;59.142;37.948;2023-04-24T02:48:15;6.75;;;1.63;;
79139;SDS011;68546;59.142;37.948;2023-04-24T02:50:42;6.63;;;1.65;;
79139;SDS011;68546;59.142;37.948;2023-04-24T02:53:09;4.43;;;1.33;;
79139;SDS011;68546;59.142;37.948;2023-04-24T02:55:35;7.10;;;3.33;;
79139;SDS011;68546;59.142;37.948;2023-04-24T02:58:01;7.68;;;2.38;;
79139;SDS011;68546;59.142;37.948;2023-04-24T03:00:28;13.82;;;2.80;;
79139;SDS011;68546;59.142;37.948;2023-04-24T03:02:54;8.90;;;3.80;;
79139;SDS011;68546;59.142;37.948;2023-04-24T03:05:21;12.20;;;3.20;;
79139;SDS011;68546;59.142;37.948;2023-04-24T03:07:47;11.98;;;3.60;;
79139;SDS011;68546;59.142;37.948;2023-04-24T03:10:14;16.50;;;2.85;;
79139;SDS011;68546;59.142;37.948;2023-04-24T03:12:41;28.40;;;2.40;;
79139;SDS011;68546;59.142;37.948;2023-04-24T03:15:07;16.95;;;1.85;;
79139;SDS011;68546;59.142;37.948;2023-04-24T03:17:36;7.33;;;1.90;;
79139;SDS011;68546;59.142;37.948;2023-04-24T03:20:03;7.35;;;2.55;;
79139;SDS011;68546;59.142;37.948;2023-04-24T03:22:31;8.90;;;2.65;;
79139;SDS011;68546;59.142;37.948;2023-04-24T03:25:00;18.92;;;3.10;;
79139;SDS011;68546;59.142;37.948;2023-04-24T03:27:26;10.85;;;2.95;;
79139;SDS011;68546;59.142;37.948;2023-04-24T03:30:00;8.00;;;2.90;;
79139;SDS011;68546;59.142;37.948;2023-04-24T03:32:36;8.75;;;3.17;;
79139;SDS011;68546;59.142;37.948;2023-04-24T03:35:03;11.10;;;3.50;;
79139;SDS011;68546;59.142;37.948;2023-04-24T03:37:29;5.97;;;2.47;;
79139;SDS011;68546;59.142;37.948;2023-04-24T03:40:13;5.43;;;1.70;;
79139;SDS011;68546;59.142;37.948;2023-04-24T03:42:40;7.00;;;1.80;;
79139;SDS011;68546;59.142;37.948;2023-04-24T03:45:07;4.15;;;1.27;;
79139;SDS011;68546;59.142;37.948;2023-04-24T03:47:36;9.63;;;2.63;;
79139;SDS011;68546;59.142;37.948;2023-04-24T03:50:04;7.03;;;2.13;;
79139;SDS011;68546;59.142;37.948;2023-04-24T03:52:32;5.15;;;1.80;;
79139;SDS011;68546;59.142;37.948;2023-04-24T03:54:58;7.53;;;1.67;;
79139;SDS011;68546;59.142;37.948;2023-04-24T03:57:26;6.63;;;1.70;;
79139;SDS011;68546;59.142;37.948;2023-04-24T04:00:10;7.53;;;2.58;;
79139;SDS011;68546;59.142;37.948;2023-04-24T04:02:41;4.20;;;1.67;;
79139;SDS011;68546;59.142;37.948;2023-04-24T04:05:08;7.82;;;2.33;;
79139;SDS011;68546;59.142;37.948;2023-04-24T04:07:35;13.33;;;2.37;;
79139;SDS011;68546;59.142;37.948;2023-04-24T04:10:02;5.85;;;1.75;;
79139;SDS011;68546;59.142;37.948;2023-04-24T04:12:29;7.43;;;2.50;;
79139;SDS011;68546;59.142;37.948;2023-04-24T04:14:55;16.45;;;2.38;;
79139;SDS011;68546;59.142;37.948;2023-04-24T04:17:22;9.02;;;2.17;;
79139;SDS011;68546;59.142;37.948;2023-04-24T04:19:48;7.87;;;2.60;;
79139;SDS011;68546;59.142;37.948;2023-04-24T04:22:15;15.07;;;3.40;;
79139;SDS011;68546;59.142;37.948;2023-04-24T04:24:44;7.38;;;2.33;;
79139;SDS011;68546;59.142;37.948;2023-04-24T04:27:12;11.50;;;3.17;;
79139;SDS011;68546;59.142;37.948;2023-04-24T04:29:46;12.90;;;3.20;;
79139;SDS011;68546;59.142;37.948;2023-04-24T04:32:16;13.53;;;3.03;;
79139;SDS011;68546;59.142;37.948;2023-04-24T04:34:42;13.02;;;3.33;;
79139;SDS011;68546;59.142;37.948;2023-04-24T04:37:11;7.15;;;2.33;;
79139;SDS011;68546;59.142;37.948;2023-04-24T04:40:02;9.70;;;2.53;;
79139;SDS011;68546;59.142;37.948;2023-04-24T04:42:37;13.73;;;2.30;;
79139;SDS011;68546;59.142;37.948;2023-04-24T04:45:07;11.73;;;3.27;;
79139;SDS011;68546;59.142;37.948;2023-04-24T04:47:46;12.68;;;4.97;;
79139;SDS011;68546;59.142;37.948;2023-04-24T04:50:13;6.88;;;3.20;;
79139;SDS011;68546;59.142;37.948;2023-04-24T04:52:39;12.73;;;4.07;;
79139;SDS011;68546;59.142;37.948;2023-04-24T04:55:22;13.00;;;3.63;;
79139;SDS011;68546;59.142;37.948;2023-04-24T04:58:07;13.10;;;6.10;;
79139;SDS011;68546;59.142;37.948;2023-04-24T05:00:34;9.75;;;3.83;;
79139;SDS011;68546;59.142;37.948;2023-04-24T05:03:12;8.98;;;3.42;;
79139;SDS011;68546;59.142;37.948;2023-04-24T05:05:38;6.82;;;2.90;;
79139;SDS011;68546;59.142;37.948;2023-04-24T05:08:09;9.93;;;3.90;;
79139;SDS011;68546;59.142;37.948;2023-04-24T05:10:36;7.60;;;3.20;;
79139;SDS011;68546;59.142;37.948;2023-04-24T05:13:06;5.93;;;2.10;;
79139;SDS011;68546;59.142;37.948;2023-04-24T05:15:33;8.65;;;3.05;;
79139;SDS011;68546;59.142;37.948;2023-04-24T05:18:00;6.68;;;2.17;;
79139;SDS011;68546;59.142;37.948;2023-04-24T05:20:28;10.95;;;4.15;;
79139;SDS011;68546;59.142;37.948;2023-04-24T05:22:54;7.73;;;4.73;;
79139;SDS011;68546;59.142;37.948;2023-04-24T05:25:22;12.15;;;4.13;;
79139;SDS011;68546;59.142;37.948;2023-04-24T05:28:04;8.57;;;2.97;;
79139;SDS011;68546;59.142;37.948;2023-04-24T05:30:33;8.70;;;3.92;;
79139;SDS011;68546;59.142;37.948;2023-04-24T05:33:01;12.07;;;3.08;;
79139;SDS011;68546;59.142;37.948;2023-04-24T05:35:28;18.03;;;4.90;;
79139;SDS011;68546;59.142;37.948;2023-04-24T05:37:55;14.88;;;6.50;;
79139;SDS011;68546;59.142;37.948;2023-04-24T05:40:21;12.70;;;7.43;;
79139;SDS011;68546;59.142;37.948;2023-04-24T05:42:48;13.85;;;5.88;;
79139;SDS011;68546;59.142;37.948;2023-04-24T05:45:15;17.48;;;4.50;;
79139;SDS011;68546;59.142;37.948;2023-04-24T05:47:44;12.73;;;5.23;;
79139;SDS011;68546;59.142;37.948;2023-04-24T05:50:11;9.15;;;3.42;;
79139;SDS011;68546;59.142;37.948;2023-04-24T05:52:38;9.63;;;2.92;;
79139;SDS011;68546;59.142;37.948;2023-04-24T05:55:12;10.00;;;2.47;;
79139;SDS011;68546;59.142;37.948;2023-04-24T05:57:41;12.45;;;2.30;;
79139;SDS011;68546;59.142;37.948;2023-04-24T06:00:08;7.30;;;2.27;;
79139;SDS011;68546;59.142;37.948;2023-04-24T06:02:47;7.03;;;2.20;;
79139;SDS011;68546;59.142;37.948;2023-04-24T06:05:14;7.13;;;2.30;;
79139;SDS011;68546;59.142;37.948;2023-04-24T06:07:41;10.75;;;2.60;;
79139;SDS011;68546;59.142;37.948;2023-04-24T06:10:09;7.65;;;2.40;;
79139;SDS011;68546;59.142;37.948;2023-04-24T06:12:41;8.50;;;2.13;;
79139;SDS011;68546;59.142;37.948;2023-04-24T06:15:14;7.65;;;2.30;;
79139;SDS011;68546;59.142;37.948;2023-04-24T06:17:53;9.77;;;2.20;;
79139;SDS011;68546;59.142;37.948;2023-04-24T06:20:24;7.88;;;2.10;;
79139;SDS011;68546;59.142;37.948;2023-04-24T06:22:51;5.32;;;1.98;;
79139;SDS011;68546;59.142;37.948;2023-04-24T06:25:19;6.90;;;2.10;;
79139;SDS011;68546;59.142;37.948;2023-04-24T06:27:46;6.15;;;2.63;;
79139;SDS011;68546;59.142;37.948;2023-04-24T06:30:14;10.07;;;2.00;;
79139;SDS011;68546;59.142;37.948;2023-04-24T06:32:41;8.25;;;1.90;;
79139;SDS011;68546;59.142;37.948;2023-04-24T06:35:09;9.25;;;2.03;;
79139;SDS011;68546;59.142;37.948;2023-04-24T06:37:40;9.00;;;2.30;;
79139;SDS011;68546;59.142;37.948;2023-04-24T06:40:09;6.50;;;2.20;;
79139;SDS011;68546;59.142;37.948;2023-04-24T06:42:36;7.28;;;2.22;;
79139;SDS011;68546;59.142;37.948;2023-04-24T06:45:03;5.35;;;1.80;;
79139;SDS011;68546;59.142;37.948;2023-04-24T06:47:31;10.65;;;2.70;;
79139;SDS011;68546;59.142;37.948;2023-04-24T06:49:58;7.30;;;2.20;;
79139;SDS011;68546;59.142;37.948;2023-04-24T06:52:25;8.35;;;2.45;;
79139;SDS011;68546;59.142;37.948;2023-04-24T06:54:51;9.35;;;2.40;;
79139;SDS011;68546;59.142;37.948;2023-04-24T06:57:18;11.43;;;2.90;;
79139;SDS011;68546;59.142;37.948;2023-04-24T06:59:45;6.82;;;2.72;;
79139;SDS011;68546;59.142;37.948;2023-04-24T07:02:11;8.97;;;2.33;;
79139;SDS011;68546;59.142;37.948;2023-04-24T07:04:38;9.98;;;2.28;;
79139;SDS011;68546;59.142;37.948;2023-04-24T07:07:04;10.55;;;2.33;;
79139;SDS011;68546;59.142;37.948;2023-04-24T07:09:32;10.13;;;3.15;;
79139;SDS011;68546;59.142;37.948;2023-04-24T07:12:01;8.88;;;2.85;;
79139;SDS011;68546;59.142;37.948;2023-04-24T07:14:27;9.93;;;3.67;;
79139;SDS011;68546;59.142;37.948;2023-04-24T07:16:53;11.82;;;3.10;;
79139;SDS011;68546;59.142;37.948;2023-04-24T07:19:19;7.75;;;2.60;;
79139;SDS011;68546;59.142;37.948;2023-04-24T07:21:46;9.07;;;2.60;;
79139;SDS011;68546;59.142;37.948;2023-04-24T07:24:12;8.48;;;3.00;;
79139;SDS011;68546;59.142;37.948;2023-04-24T07:26:38;7.97;;;3.10;;
79139;SDS011;68546;59.142;37.948;2023-04-24T07:29:07;8.75;;;2.92;;
79139;SDS011;68546;59.142;37.948;2023-04-24T07:31:34;6.70;;;2.53;;
79139;SDS011;68546;59.142;37.948;2023-04-24T07:34:03;10.60;;;2.70;;
79139;SDS011;68546;59.142;37.948;2023-04-24T07:36:32;7.93;;;2.22;;
79139;SDS011;68546;59.142;37.948;2023-04-24T07:38:58;9.23;;;2.67;;
79139;SDS011;68546;59.142;37.948;2023-04-24T07:41:25;8.55;;;2.80;;
79139;SDS011;68546;59.142;37.948;2023-04-24T07:43:53;9.05;;;3.20;;
79139;SDS011;68546;59.142;37.948;2023-04-24T07:46:19;10.63;;;2.92;;
79139;SDS011;68546;59.142;37.948;2023-04-24T07:48:46;10.68;;;3.03;;
79139;SDS011;68546;59.142;37.948;2023-04-24T07:51:15;7.60;;;2.47;;
79139;SDS011;68546;59.142;37.948;2023-04-24T07:53:43;8.43;;;2.40;;
79139;SDS011;68546;59.142;37.948;2023-04-24T07:56:09;17.48;;;2.83;;
79139;SDS011;68546;59.142;37.948;2023-04-24T07:58:36;9.00;;;2.88;;
79139;SDS011;68546;59.142;37.948;2023-04-24T08:01:05;11.70;;;7.68;;
79139;SDS011;68546;59.142;37.948;2023-04-24T08:03:32;8.90;;;4.80;;
79139;SDS011;68546;59.142;37.948;2023-04-24T08:05:59;12.82;;;3.90;;
79139;SDS011;68546;59.142;37.948;2023-04-24T08:08:27;8.32;;;3.30;;
79139;SDS011;68546;59.142;37.948;2023-04-24T08:10:55;12.25;;;3.40;;
79139;SDS011;68546;59.142;37.948;2023-04-24T08:13:22;10.45;;;3.15;;
79139;SDS011;68546;59.142;37.948;2023-04-24T08:15:48;6.40;;;2.70;;
79139;SDS011;68546;59.142;37.948;2023-04-24T08:18:15;7.80;;;2.28;;
79139;SDS011;68546;59.142;37.948;2023-04-24T08:20:42;13.25;;;2.47;;
79139;SDS011;68546;59.142;37.948;2023-04-24T08:23:12;13.32;;;2.95;;
79139;SDS011;68546;59.142;37.948;2023-04-24T08:25:38;7.03;;;2.40;;
79139;SDS011;68546;59.142;37.948;2023-04-24T08:28:05;8.50;;;2.90;;
79139;SDS011;68546;59.142;37.948;2023-04-24T08:30:34;9.80;;;2.53;;
79139;SDS011;68546;59.142;37.948;2023-04-24T08:33:00;6.32;;;2.20;;
79139;SDS011;68546;59.142;37.948;2023-04-24T08:35:27;8.57;;;2.35;;
79139;SDS011;68546;59.142;37.948;2023-04-24T08:37:54;8.65;;;2.50;;
79139;SDS011;68546;59.142;37.948;2023-04-24T08:40:22;8.83;;;2.87;;
79139;SDS011;68546;59.142;37.948;2023-04-24T08:42:57;5.93;;;2.25;;
79139;SDS011;68546;59.142;37.948;2023-04-24T08:45:26;5.78;;;2.50;;
79139;SDS011;68546;59.142;37.948;2023-04-24T08:47:53;6.72;;;2.83;;
79139;SDS011;68546;59.142;37.948;2023-04-24T08:50:22;10.07;;;2.30;;
79139;SDS011;68546;59.142;37.948;2023-04-24T08:52:52;7.30;;;2.13;;
79139;SDS011;68546;59.142;37.948;2023-04-24T08:55:19;8.77;;;2.40;;
79139;SDS011;68546;59.142;37.948;2023-04-24T08:57:50;8.90;;;1.90;;
79139;SDS011;68546;59.142;37.948;2023-04-24T09:00:19;8.40;;;2.25;;
79139;SDS011;68546;59.142;37.948;2023-04-24T09:02:48;9.10;;;1.92;;
79139;SDS011;68546;59.142;37.948;2023-04-24T09:05:17;5.80;;;2.00;;
79139;SDS011;68546;59.142;37.948;2023-04-24T09:07:49;7.30;;;1.92;;
79139;SDS011;68546;59.142;37.948;2023-04-24T09:10:24;9.38;;;1.90;;
79139;SDS011;68546;59.142;37.948;2023-04-24T09:12:52;12.40;;;6.50;;
79139;SDS011;68546;59.142;37.948;2023-04-24T09:15:19;15.68;;;5.90;;
79139;SDS011;68546;59.142;37.948;2023-04-24T09:17:46;21.67;;;6.13;;
79139;SDS011;68546;59.142;37.948;2023-04-24T09:20:13;9.43;;;3.20;;
79139;SDS011;68546;59.142;37.948;2023-04-24T09:22:39;10.07;;;2.05;;
79139;SDS011;68546;59.142;37.948;2023-04-24T09:25:07;16.85;;;2.72;;
79139;SDS011;68546;59.142;37.948;2023-04-24T09:27:34;9.50;;;4.10;;
79139;SDS011;68546;59.142;37.948;2023-04-24T09:30:02;10.37;;;4.30;;
79139;SDS011;68546;59.142;37.948;2023-04-24T09:32:30;12.43;;;2.22;;
79139;SDS011;68546;59.142;37.948;2023-04-24T09:37:43;8.10;;;2.60;;
79139;SDS011;68546;59.142;37.948;2023-04-24T09:40:12;12.43;;;3.40;;
79139;SDS011;68546;59.142;37.948;2023-04-24T09:42:38;8.63;;;3.90;;
79139;SDS011;68546;59.142;37.948;2023-04-24T09:45:09;16.02;;;3.80;;
79139;SDS011;68546;59.142;37.948;2023-04-24T09:47:37;12.50;;;5.97;;
79139;SDS011;68546;59.142;37.948;2023-04-24T09:50:14;32.65;;;5.95;;
79139;SDS011;68546;59.142;37.948;2023-04-24T09:52:46;16.88;;;2.97;;
79139;SDS011;68546;59.142;37.948;2023-04-24T09:55:21;19.13;;;11.70;;
79139;SDS011;68546;59.142;37.948;2023-04-24T09:57:48;23.17;;;12.60;;
79139;SDS011;68546;59.142;37.948;2023-04-24T10:00:21;25.02;;;14.60;;
79139;SDS011;68546;59.142;37.948;2023-04-24T10:02:56;23.40;;;7.85;;
79139;SDS011;68546;59.142;37.948;2023-04-24T10:05:33;24.42;;;5.60;;
79139;SDS011;68546;59.142;37.948;2023-04-24T10:08:02;16.20;;;5.82;;
79139;SDS011;68546;59.142;37.948;2023-04-24T10:10:30;24.90;;;13.73;;
79139;SDS011;68546;59.142;37.948;2023-04-24T10:12:58;22.92;;;13.32;;
79139;SDS011;68546;59.142;37.948;2023-04-24T10:15:26;29.63;;;18.15;;
79139;SDS011;68546;59.142;37.948;2023-04-24T10:17:53;25.27;;;8.48;;
79139;SDS011;68546;59.142;37.948;2023-04-24T10:20:23;19.40;;;8.07;;
79139;SDS011;68546;59.142;37.948;2023-04-24T10:22:53;16.27;;;4.78;;
79139;SDS011;68546;59.142;37.948;2023-04-24T10:25:22;26.05;;;7.15;;
79139;SDS011;68546;59.142;37.948;2023-04-24T10:27:52;23.52;;;7.00;;
79139;SDS011;68546;59.142;37.948;2023-04-24T10:30:23;22.63;;;10.95;;
79139;SDS011;68546;59.142;37.948;2023-04-24T10:32:49;36.72;;;19.90;;
79139;SDS011;68546;59.142;37.948;2023-04-24T10:35:17;14.60;;;7.75;;
79139;SDS011;68546;59.142;37.948;2023-04-24T10:37:45;9.93;;;6.80;;
79139;SDS011;68546;59.142;37.948;2023-04-24T10:40:26;21.33;;;5.88;;
79139;SDS011;68546;59.142;37.948;2023-04-24T10:42:56;16.95;;;12.95;;
79139;SDS011;68546;59.142;37.948;2023-04-24T10:45:23;12.88;;;8.60;;
79139;SDS011;68546;59.142;37.948;2023-04-24T10:47:51;11.02;;;6.20;;
79139;SDS011;68546;59.142;37.948;2023-04-24T10:50:19;10.32;;;5.40;;
79139;SDS011;68546;59.142;37.948;2023-04-24T10:52:46;13.15;;;7.88;;
79139;SDS011;68546;59.142;37.948;2023-04-24T10:55:42;13.63;;;6.88;;
79139;SDS011;68546;59.142;37.948;2023-04-24T10:58:12;11.98;;;5.93;;
79139;SDS011;68546;59.142;37.948;2023-04-24T11:00:40;12.18;;;5.95;;
79139;SDS011;68546;59.142;37.948;2023-04-24T11:03:28;13.27;;;5.78;;
79139;SDS011;68546;59.142;37.948;2023-04-24T11:06:02;15.32;;;4.32;;
79139;SDS011;68546;59.142;37.948;2023-04-24T11:08:45;16.80;;;5.85;;
79139;SDS011;68546;59.142;37.948;2023-04-24T11:11:14;14.73;;;5.28;;
79139;SDS011;68546;59.142;37.948;2023-04-24T11:19:06;11.25;;;6.00;;
79139;SDS011;68546;59.142;37.948;2023-04-24T11:29:40;21.92;;;10.63;;
79139;SDS011;68546;59.142;37.948;2023-04-24T11:32:15;17.63;;;7.35;;
79139;SDS011;68546;59.142;37.948;2023-04-24T11:35:06;17.77;;;7.70;;
79139;SDS011;68546;59.142;37.948;2023-04-24T11:37:44;15.50;;;5.80;;
79139;SDS011;68546;59.142;37.948;2023-04-24T11:40:15;8.15;;;5.20;;
79139;SDS011;68546;59.142;37.948;2023-04-24T11:42:47;14.93;;;4.60;;
79139;SDS011;68546;59.142;37.948;2023-04-24T11:48:00;12.50;;;3.65;;
79139;SDS011;68546;59.142;37.948;2023-04-24T11:50:29;11.30;;;3.58;;
79139;SDS011;68546;59.142;37.948;2023-04-24T11:52:56;12.05;;;3.55;;
79139;SDS011;68546;59.142;37.948;2023-04-24T11:55:23;11.43;;;5.55;;
79139;SDS011;68546;59.142;37.948;2023-04-24T11:57:58;11.00;;;4.50;;
79139;SDS011;68546;59.142;37.948;2023-04-24T12:00:26;7.68;;;4.28;;
79139;SDS011;68546;59.142;37.948;2023-04-24T12:03:10;14.05;;;3.83;;
79139;SDS011;68546;59.142;37.948;2023-04-24T12:05:37;8.82;;;2.90;;
79139;SDS011;68546;59.142;37.948;2023-04-24T12:08:05;11.07;;;3.70;;
79139;SDS011;68546;59.142;37.948;2023-04-24T12:10:33;10.40;;;3.45;;
79139;SDS011;68546;59.142;37.948;2023-04-24T12:13:00;9.57;;;2.47;;
79139;SDS011;68546;59.142;37.948;2023-04-24T12:15:29;8.63;;;2.60;;
79139;SDS011;68546;59.142;37.948;2023-04-24T12:17:56;11.77;;;4.20;;
79139;SDS011;68546;59.142;37.948;2023-04-24T12:20:29;6.50;;;3.08;;
79139;SDS011;68546;59.142;37.948;2023-04-24T12:22:57;8.32;;;3.38;;
79139;SDS011;68546;59.142;37.948;2023-04-24T12:25:28;11.25;;;3.40;;
79139;SDS011;68546;59.142;37.948;2023-04-24T12:30:31;15.38;;;4.25;;
79139;SDS011;68546;59.142;37.948;2023-04-24T12:32:59;14.18;;;5.20;;
79139;SDS011;68546;59.142;37.948;2023-04-24T12:35:30;10.55;;;4.97;;
79139;SDS011;68546;59.142;37.948;2023-04-24T12:38:12;15.02;;;4.90;;
79139;SDS011;68546;59.142;37.948;2023-04-24T12:40:42;15.68;;;4.10;;
79139;SDS011;68546;59.142;37.948;2023-04-24T12:43:13;6.57;;;3.00;;
79139;SDS011;68546;59.142;37.948;2023-04-24T12:45:45;8.77;;;2.53;;
79139;SDS011;68546;59.142;37.948;2023-04-24T12:48:13;13.02;;;2.30;;
79139;SDS011;68546;59.142;37.948;2023-04-24T12:50:40;11.13;;;2.55;;
79139;SDS011;68546;59.142;37.948;2023-04-24T12:53:07;11.52;;;2.40;;
79139;SDS011;68546;59.142;37.948;2023-04-24T12:55:35;10.80;;;3.88;;
79139;SDS011;68546;59.142;37.948;2023-04-24T12:58:04;11.15;;;3.20;;
79139;SDS011;68546;59.142;37.948;2023-04-24T13:00:32;8.63;;;2.50;;
79139;SDS011;68546;59.142;37.948;2023-04-24T13:03:01;12.25;;;3.03;;
79139;SDS011;68546;59.142;37.948;2023-04-24T13:05:28;8.30;;;2.20;;
79139;SDS011;68546;59.142;37.948;2023-04-24T13:07:56;8.68;;;4.40;;
79139;SDS011;68546;59.142;37.948;2023-04-24T13:10:23;10.32;;;3.80;;
79139;SDS011;68546;59.142;37.948;2023-04-24T13:12:50;8.18;;;3.20;;
79139;SDS011;68546;59.142;37.948;2023-04-24T13:15:17;13.93;;;2.90;;
79139;SDS011;68546;59.142;37.948;2023-04-24T13:17:43;9.37;;;3.00;;
79139;SDS011;68546;59.142;37.948;2023-04-24T13:20:09;13.23;;;4.93;;
79139;SDS011;68546;59.142;37.948;2023-04-24T13:22:36;13.95;;;5.40;;
79139;SDS011;68546;59.142;37.948;2023-04-24T13:25:04;13.13;;;4.63;;
79139;SDS011;68546;59.142;37.948;2023-04-24T13:27:31;11.32;;;4.65;;
79139;SDS011;68546;59.142;37.948;2023-04-24T13:29:58;10.90;;;4.53;;
79139;SDS011;68546;59.142;37.948;2023-04-24T13:32:25;10.65;;;4.28;;
79139;SDS011;68546;59.142;37.948;2023-04-24T13:34:53;9.63;;;4.80;;
79139;SDS011;68546;59.142;37.948;2023-04-24T13:37:19;12.00;;;6.28;;
79139;SDS011;68546;59.142;37.948;2023-04-24T13:39:45;12.07;;;5.78;;
79139;SDS011;68546;59.142;37.948;2023-04-24T13:42:12;10.07;;;3.53;;
79139;SDS011;68546;59.142;37.948;2023-04-24T13:44:40;9.43;;;5.50;;
79139;SDS011;68546;59.142;37.948;2023-04-24T13:47:08;13.45;;;5.03;;
79139;SDS011;68546;59.142;37.948;2023-04-24T13:49:34;8.50;;;4.40;;
79139;SDS011;68546;59.142;37.948;2023-04-24T13:52:01;8.93;;;3.78;;
79139;SDS011;68546;59.142;37.948;2023-04-24T13:54:28;16.38;;;6.13;;
79139;SDS011;68546;59.142;37.948;2023-04-24T13:56:57;14.82;;;5.82;;
79139;SDS011;68546;59.142;37.948;2023-04-24T13:59:24;10.63;;;4.40;;
79139;SDS011;68546;59.142;37.948;2023-04-24T14:01:51;12.48;;;6.45;;
79139;SDS011;68546;59.142;37.948;2023-04-24T14:04:20;11.32;;;5.28;;
79139;SDS011;68546;59.142;37.948;2023-04-24T14:06:47;9.50;;;4.83;;
79139;SDS011;68546;59.142;37.948;2023-04-24T14:09:14;8.93;;;4.82;;
79139;SDS011;68546;59.142;37.948;2023-04-24T14:11:41;11.77;;;5.50;;
79139;SDS011;68546;59.142;37.948;2023-04-24T14:14:08;9.25;;;4.82;;
79139;SDS011;68546;59.142;37.948;2023-04-24T14:16:34;10.88;;;6.63;;
79139;SDS011;68546;59.142;37.948;2023-04-24T14:19:01;11.53;;;4.60;;
79139;SDS011;68546;59.142;37.948;2023-04-24T14:21:27;12.38;;;5.60;;
79139;SDS011;68546;59.142;37.948;2023-04-24T14:23:53;15.77;;;3.97;;
79139;SDS011;68546;59.142;37.948;2023-04-24T14:26:20;7.97;;;3.47;;
79139;SDS011;68546;59.142;37.948;2023-04-24T14:28:47;12.07;;;3.08;;
79139;SDS011;68546;59.142;37.948;2023-04-24T14:31:13;11.83;;;2.50;;
79139;SDS011;68546;59.142;37.948;2023-04-24T14:33:40;7.20;;;3.30;;
79139;SDS011;68546;59.142;37.948;2023-04-24T14:36:06;11.55;;;4.20;;
79139;SDS011;68546;59.142;37.948;2023-04-24T14:38:33;9.23;;;3.97;;
79139;SDS011;68546;59.142;37.948;2023-04-24T14:41:00;15.07;;;4.07;;
79139;SDS011;68546;59.142;37.948;2023-04-24T14:43:27;14.43;;;5.80;;
79139;SDS011;68546;59.142;37.948;2023-04-24T14:45:53;8.73;;;3.63;;
79139;SDS011;68546;59.142;37.948;2023-04-24T14:48:20;7.82;;;4.95;;
79139;SDS011;68546;59.142;37.948;2023-04-24T14:50:47;8.57;;;4.30;;
79139;SDS011;68546;59.142;37.948;2023-04-24T14:53:14;10.70;;;4.40;;
79139;SDS011;68546;59.142;37.948;2023-04-24T14:55:43;16.47;;;9.40;;
79139;SDS011;68546;59.142;37.948;2023-04-24T14:58:09;13.13;;;10.43;;